»·PEaware :: WAT169 KSAN-KLAS

WAT169 :: KSAN-KLAS

FLIGHT INFORMATION

Flight Status: Arrived
Operator:
Walker Air Transport
More flights by this operator :: More flights under this callsign
Pilot: Marty P. (27464)
Aircraft: BOEING 737-800
(B738)
More flights by this aircraft type
Origin: KSAN San Diego Intl-Lindbergh
United States
Destination: KLAS McCarran Intl
United States
More flights between these airports :: More routes between these airports
Route: +PADRZ2 CHKNN SEBBY YELAH MISEN KEPEC6
File this flight plan on PilotEdge
Remarks:
Altitude:
(Current/Filed)
33,000ft
Speed:
(Current/Filed)
480kts
Departed: 09-Aug-20 08:23 AM
Arrived: 09-Aug-20 09:13 AM
Distance/Time
Traveled:
225nm/0:50
Distance/Time
To Go:
Arrived

Flight Plot

Page will automatically refresh every two minutes.

Flight plan parsing failed; only flown route is shown


Map Options




Map Legend


Flown Route
Filed Route
Departure Airport
Arrival Airport
Navaid (VOR, NDB)
Fix

Horizontal Profiles

Position Reports

Time Latitude Longitude Heading Altitude Ground
Speed
09-Aug-20 07:31 32.732934 -117.201678 92 27ft 0kts
09-Aug-20 07:32 32.732934 -117.201678 92 27ft 0kts
09-Aug-20 07:33 32.732934 -117.201678 92 27ft 0kts
09-Aug-20 07:34 32.732934 -117.201678 92 27ft 0kts
09-Aug-20 07:35 32.732934 -117.201678 92 27ft 0kts
09-Aug-20 07:37 32.732934 -117.201678 92 27ft 0kts
09-Aug-20 07:38 32.732934 -117.201678 92 27ft 0kts
09-Aug-20 07:39 32.732934 -117.201678 92 27ft 0kts
09-Aug-20 07:40 32.732934 -117.201678 92 27ft 0kts
09-Aug-20 07:41 32.732934 -117.201678 92 27ft 0kts
09-Aug-20 07:42 32.732934 -117.201678 92 27ft 0kts
09-Aug-20 07:43 32.732934 -117.201678 92 27ft 0kts
09-Aug-20 07:44 32.732934 -117.201678 92 27ft 0kts
09-Aug-20 07:45 32.732934 -117.201678 92 27ft 0kts
09-Aug-20 07:46 32.732934 -117.201678 92 27ft 0kts
09-Aug-20 07:47 32.732934 -117.201678 92 27ft 0kts
09-Aug-20 07:48 32.732934 -117.201678 92 27ft 0kts
09-Aug-20 07:49 32.732934 -117.201678 92 27ft 0kts
09-Aug-20 07:50 32.732934 -117.201678 92 27ft 0kts
09-Aug-20 07:51 32.732934 -117.201678 92 27ft 0kts
09-Aug-20 07:52 32.732934 -117.201678 92 27ft 0kts
09-Aug-20 07:53 32.732934 -117.201678 92 27ft 0kts
09-Aug-20 07:54 32.732934 -117.201678 92 27ft 0kts
09-Aug-20 07:55 32.732934 -117.201678 92 27ft 0kts
09-Aug-20 07:55 32.732934 -117.201678 92 27ft 0kts
09-Aug-20 07:57 32.732934 -117.201678 92 27ft 0kts
09-Aug-20 07:57 32.732934 -117.201678 92 27ft 0kts
09-Aug-20 07:59 32.732934 -117.201678 92 27ft 0kts
09-Aug-20 07:59 32.732934 -117.201678 92 27ft 0kts
09-Aug-20 08:00 32.732934 -117.201678 92 27ft 0kts
09-Aug-20 08:01 32.732934 -117.201678 92 27ft 0kts
09-Aug-20 08:02 32.732934 -117.201678 92 27ft 0kts
09-Aug-20 08:03 32.732934 -117.201678 92 27ft 0kts
09-Aug-20 08:04 32.732934 -117.201678 92 27ft 0kts
09-Aug-20 08:05 32.732934 -117.201678 92 27ft 0kts
09-Aug-20 08:06 32.732934 -117.201678 92 27ft 0kts
09-Aug-20 08:07 32.732934 -117.201678 92 27ft 0kts
09-Aug-20 08:08 32.733080 -117.202217 108 27ft 2kts
09-Aug-20 08:09 32.733019 -117.202565 341 27ft 0kts
09-Aug-20 08:10 32.734273 -117.202676 15 27ft 7kts
09-Aug-20 08:11 32.734992 -117.202430 16 27ft 0kts
09-Aug-20 08:12 32.734992 -117.202430 16 27ft 0kts
09-Aug-20 08:13 32.734992 -117.202430 16 27ft 0kts
09-Aug-20 08:14 32.734992 -117.202430 16 27ft 0kts
09-Aug-20 08:15 32.735014 -117.199918 106 27ft 10kts
09-Aug-20 08:16 32.734303 -117.196982 105 27ft 9kts
09-Aug-20 08:17 32.733197 -117.192421 106 27ft 18kts
09-Aug-20 08:18 32.731761 -117.186515 105 27ft 19kts
09-Aug-20 08:19 32.730420 -117.180961 106 27ft 15kts
09-Aug-20 08:20 32.729639 -117.177750 105 27ft 2kts
09-Aug-20 08:21 32.730336 -117.176547 294 27ft 17kts
09-Aug-20 08:22 32.740133 -117.216841 286 1082ft 193kts
09-Aug-20 08:23 32.776293 -117.274322 303 3891ft 243kts
09-Aug-20 08:24 32.814711 -117.342157 307 7329ft 258kts
09-Aug-20 08:25 32.859560 -117.411409 306 10480ft 273kts
09-Aug-20 08:26 32.911206 -117.491475 306 11982ft 344kts
09-Aug-20 08:27 32.974951 -117.588807 307 13562ft 397kts
09-Aug-20 08:28 33.045546 -117.696740 306 15161ft 419kts
09-Aug-20 08:29 33.128542 -117.793909 317 17655ft 422kts
09-Aug-20 08:30 33.218858 -117.886505 319 19834ft 433kts
09-Aug-20 08:31 33.312848 -117.977995 318 22495ft 426kts
09-Aug-20 08:32 33.404087 -118.067113 318 24606ft 428kts
09-Aug-20 08:33 33.496980 -118.158147 317 26258ft 437kts
09-Aug-20 08:34 33.599204 -118.240767 328 27837ft 448kts
09-Aug-20 08:35 33.712057 -118.302046 346 29649ft 454kts
09-Aug-20 08:36 33.829728 -118.257802 51 31022ft 478kts
09-Aug-20 08:37 33.884082 -118.121191 53 33065ft 455kts
09-Aug-20 08:38 33.962103 -117.992422 52 33047ft 496kts
09-Aug-20 08:39 34.045368 -117.852864 53 33050ft 524kts
09-Aug-20 08:40 34.132644 -117.714984 49 33059ft 518kts
09-Aug-20 08:41 34.224407 -117.580376 48 33061ft 518kts
09-Aug-20 08:42 34.315884 -117.446168 48 33058ft 517kts
09-Aug-20 08:43 34.407301 -117.311687 49 33054ft 516kts
09-Aug-20 08:44 34.498185 -117.177602 49 33051ft 517kts
09-Aug-20 08:45 34.589092 -117.042885 49 33044ft 514kts
09-Aug-20 08:46 34.678946 -116.909206 49 33046ft 512kts
09-Aug-20 08:47 34.768631 -116.775267 49 33045ft 511kts
09-Aug-20 08:48 34.861388 -116.644627 41 33045ft 509kts
09-Aug-20 08:49 34.969060 -116.534168 36 33047ft 508kts
09-Aug-20 08:50 35.079259 -116.426568 37 33053ft 507kts
09-Aug-20 08:51 35.178484 -116.307894 44 29715ft 499kts
09-Aug-20 08:52 35.273751 -116.189062 45 24351ft 476kts
09-Aug-20 08:53 35.361638 -116.078744 45 19805ft 436kts
09-Aug-20 08:54 35.439867 -115.979958 46 17189ft 390kts
09-Aug-20 08:55 35.514875 -115.885726 45 16021ft 384kts
09-Aug-20 08:56 35.586937 -115.795524 46 14196ft 359kts
09-Aug-20 08:57 35.649227 -115.716454 47 13416ft 302kts
09-Aug-20 08:58 35.707777 -115.640252 47 13008ft 309kts
09-Aug-20 08:59 35.776893 -115.579504 17 13009ft 311kts
09-Aug-20 09:00 35.863007 -115.569512 2 13007ft 313kts
09-Aug-20 09:01 35.949247 -115.556169 27 12978ft 312kts
09-Aug-20 09:02 35.999705 -115.476404 69 11970ft 299kts
09-Aug-20 09:03 36.026893 -115.383648 78 11073ft 269kts
09-Aug-20 09:04 36.025147 -115.290533 96 10164ft 270kts
09-Aug-20 09:05 36.018231 -115.197086 95 8726ft 278kts
09-Aug-20 09:06 36.012462 -115.105845 95 7170ft 246kts
09-Aug-20 09:07 36.007609 -115.026856 94 5511ft 221kts
09-Aug-20 09:08 36.034831 -114.978542 3 4340ft 204kts
09-Aug-20 09:09 36.073762 -115.007088 272 4048ft 183kts
09-Aug-20 09:10 36.073630 -115.062831 268 3224ft 158kts
09-Aug-20 09:11 36.073643 -115.117502 270 2369ft 159kts
09-Aug-20 09:12 36.074447 -115.145309 299 2191ft 15kts
09-Aug-20 09:13 36.074821 -115.146098 305 2191ft 7kts
09-Aug-20 09:14 36.078280 -115.147195 349 2191ft 13kts
09-Aug-20 09:15 36.079873 -115.147179 64 2191ft 5kts
09-Aug-20 09:16 36.079932 -115.147020 65 2191ft 0kts

Navigation Log

Ident Type
Flight plan parsing failed, navigation log unavailable